Time;durP1;ratioP1;P1;durP2;ratioP2;P2;SDS_P1;SDS_P2;PMS_P1;PMS_P2;Temp;Humidity;BMP_temperature;BMP_pressure;BME280_temperature;BME280_humidity;BME280_pressure;Samples;Min_cycle;Max_cycle;Signal;HPM_P1;HPM_P2
2022/09/09 00:02:23;;;;;;;;;;;13.10;99.90;;;;;;5035849;28;19971;-32
2022/09/09 00:05:08;;;;;;;;;;;13.10;99.90;;;;;;5054041;28;19923;-33
2022/09/09 00:07:33;;;;;;;;;;;13.10;99.90;;;;;;5036296;28;19959;-32
2022/09/09 00:10:15;;;;;;;;;;;13.00;99.90;;;;;;5036504;28;20336;-32
2022/09/09 00:12:48;;;;;;;;;;;13.00;99.90;;;;;;5036494;28;19924;-32
2022/09/09 00:15:19;;;;;;;;;;;13.00;99.90;;;;;;5035863;28;19967;-35
2022/09/09 00:17:45;;;;;;;;;;;13.00;99.90;;;;;;5049810;28;19916;-34
2022/09/09 00:20:13;;;;;;;;;;;13.00;99.90;;;;;;5036321;28;19917;-33
2022/09/09 00:22:43;;;;;;;;;;;13.00;99.90;;;;;;5019576;28;19974;-32
2022/09/09 00:25:10;;;;;;;;;;;13.00;99.90;;;;;;5032698;28;19917;-32
2022/09/09 00:27:46;;;;;;;;;;;13.00;99.90;;;;;;5048289;28;19927;-32
2022/09/09 00:30:16;;;;;;;;;;;13.00;99.90;;;;;;5022275;28;19921;-32
2022/09/09 00:32:41;;;;;;;;;;;13.10;99.90;;;;;;5035083;28;20038;-31
2022/09/09 00:35:10;;;;;;;;;;;13.10;99.90;;;;;;5035033;28;20081;-32
2022/09/09 00:37:37;;;;;;;;;;;13.10;99.90;;;;;;5044263;28;19970;-32
2022/09/09 00:40:08;;;;;;;;;;;13.10;99.90;;;;;;5035463;28;19920;-32
2022/09/09 00:42:43;;;;;;;;;;;13.20;99.90;;;;;;5034154;28;19960;-32
2022/09/09 00:45:09;;;;;;;;;;;13.20;99.90;;;;;;5035006;28;20335;-32
2022/09/09 00:47:50;;;;;;;;;;;13.30;99.90;;;;;;5017496;28;19972;-32
2022/09/09 00:50:43;;;;;;;;;;;13.30;99.90;;;;;;5049140;28;20433;-31
2022/09/09 00:53:10;;;;;;;;;;;13.30;99.90;;;;;;5032730;28;20302;-32
2022/09/09 00:55:42;;;;;;;;;;;13.40;99.90;;;;;;5018151;28;19990;-31
2022/09/09 00:58:08;;;;;;;;;;;13.40;99.90;;;;;;5035116;28;20293;-31
2022/09/09 01:00:46;;;;;;;;;;;13.50;99.90;;;;;;5034400;28;19916;-32
2022/09/09 01:03:34;;;;;;;;;;;13.60;99.90;;;;;;5043965;28;20281;-31
2022/09/09 01:06:00;;;;;;;;;;;13.60;99.90;;;;;;5034648;28;20416;-32
2022/09/09 01:08:41;;;;;;;;;;;13.70;99.90;;;;;;5035026;28;19952;-32
2022/09/09 01:11:10;;;;;;;;;;;13.70;99.90;;;;;;5034620;28;20362;-31
2022/09/09 01:13:36;;;;;;;;;;;13.80;99.90;;;;;;5051835;28;19923;-32
2022/09/09 01:16:07;;;;;;;;;;;13.80;99.90;;;;;;5042093;28;19916;-31
2022/09/09 01:18:38;;;;;;;;;;;13.80;99.90;;;;;;5034495;28;20324;-33
2022/09/09 01:21:04;;;;;;;;;;;13.90;99.90;;;;;;5034331;28;19923;-31
2022/09/09 01:23:38;;;;;;;;;;;14.00;99.90;;;;;;5018038;28;19925;-31
2022/09/09 01:26:23;;;;;;;;;;;14.00;99.90;;;;;;5034310;28;20017;-31
2022/09/09 01:28:52;;;;;;;;;;;14.00;99.90;;;;;;5033516;28;19956;-31
2022/09/09 01:31:32;;;;;;;;;;;14.10;99.90;;;;;;5052279;28;19920;-31
2022/09/09 01:33:57;;;;;;;;;;;14.10;99.90;;;;;;5018256;28;19917;-31
2022/09/09 01:36:29;;;;;;;;;;;14.20;99.90;;;;;;5032604;28;19924;-32
2022/09/09 01:38:55;;;;;;;;;;;14.20;99.90;;;;;;5034654;28;20366;-32
2022/09/09 01:41:21;;;;;;;;;;;14.20;99.90;;;;;;5034258;28;19917;-32
2022/09/09 01:43:47;;;;;;;;;;;14.20;99.90;;;;;;5034799;28;20425;-31
2022/09/09 01:46:13;;;;;;;;;;;14.20;99.90;;;;;;5036079;28;19927;-31
2022/09/09 01:48:39;;;;;;;;;;;14.20;99.90;;;;;;5035191;28;20381;-31
2022/09/09 01:51:05;;;;;;;;;;;14.20;99.90;;;;;;5038048;28;19998;-31
2022/09/09 01:53:30;;;;;;;;;;;14.30;99.90;;;;;;5030968;28;20317;-32
2022/09/09 01:56:07;;;;;;;;;;;14.30;99.90;;;;;;5016719;28;20394;-31
2022/09/09 01:58:33;;;;;;;;;;;14.30;99.90;;;;;;5037966;28;19917;-32
2022/09/09 02:01:06;;;;;;;;;;;14.30;99.90;;;;;;5038070;28;19918;-31
2022/09/09 02:03:33;;;;;;;;;;;14.30;99.90;;;;;;5021702;28;19916;-32
2022/09/09 02:05:59;;;;;;;;;;;14.30;99.90;;;;;;5030655;28;19979;-31
2022/09/09 02:08:28;;;;;;;;;;;14.30;99.90;;;;;;5059805;28;19956;-31
2022/09/09 02:11:00;;;;;;;;;;;14.30;99.90;;;;;;5049801;28;19927;-32
2022/09/09 02:13:26;;;;;;;;;;;14.30;99.90;;;;;;5039069;28;19923;-32
2022/09/09 02:16:00;;;;;;;;;;;14.30;99.90;;;;;;5037627;28;19917;-31
2022/09/09 02:18:28;;;;;;;;;;;14.30;99.90;;;;;;5037635;28;19924;-32
2022/09/09 02:20:56;;;;;;;;;;;14.30;99.90;;;;;;5037294;28;19930;-31
2022/09/09 02:23:21;;;;;;;;;;;14.30;99.90;;;;;;5037683;28;19923;-31
2022/09/09 02:25:48;;;;;;;;;;;14.30;99.90;;;;;;5037538;28;19916;-32
2022/09/09 02:28:14;;;;;;;;;;;14.30;99.90;;;;;;5055232;28;19971;-32
2022/09/09 02:30:42;;;;;;;;;;;14.30;99.90;;;;;;5037910;28;19917;-31
2022/09/09 02:33:10;;;;;;;;;;;14.40;99.90;;;;;;5037589;28;19916;-32
2022/09/09 02:35:37;;;;;;;;;;;14.40;99.90;;;;;;5053975;28;19978;-32
2022/09/09 02:38:04;;;;;;;;;;;14.40;99.90;;;;;;5034982;28;19921;-31
2022/09/09 02:40:30;;;;;;;;;;;14.40;99.90;;;;;;5037736;28;19916;-31
2022/09/09 02:42:56;;;;;;;;;;;14.40;99.90;;;;;;5034410;28;19925;-31
2022/09/09 02:45:24;;;;;;;;;;;14.40;99.90;;;;;;5018801;28;19939;-34
2022/09/09 02:48:02;;;;;;;;;;;14.40;99.90;;;;;;5036090;28;19924;-32
2022/09/09 02:50:49;;;;;;;;;;;14.40;99.90;;;;;;5054185;28;19939;-31
2022/09/09 02:53:20;;;;;;;;;;;14.40;99.90;;;;;;5033684;28;19971;-31
2022/09/09 02:55:50;;;;;;;;;;;14.40;99.90;;;;;;5017262;28;19924;-32
2022/09/09 02:58:17;;;;;;;;;;;14.40;99.90;;;;;;5026759;28;19931;-32
2022/09/09 03:00:43;;;;;;;;;;;14.40;99.90;;;;;;5036701;28;19916;-31
2022/09/09 03:03:09;;;;;;;;;;;14.40;99.90;;;;;;5036922;28;19917;-32
2022/09/09 03:05:35;;;;;;;;;;;14.40;99.90;;;;;;5037030;28;19917;-32
2022/09/09 03:08:02;;;;;;;;;;;14.40;99.90;;;;;;5037106;28;20266;-31
2022/09/09 03:10:28;;;;;;;;;;;14.40;99.90;;;;;;5036658;28;20374;-32
2022/09/09 03:12:55;;;;;;;;;;;14.40;99.90;;;;;;5036693;28;19926;-32
2022/09/09 03:15:20;;;;;;;;;;;14.40;99.90;;;;;;5048798;28;19917;-31
2022/09/09 03:17:47;;;;;;;;;;;14.30;99.90;;;;;;5033513;28;19921;-31
2022/09/09 03:20:12;;;;;;;;;;;14.30;99.90;;;;;;5033986;28;19921;-31
2022/09/09 03:22:38;;;;;;;;;;;14.30;99.90;;;;;;5036362;28;19924;-32
2022/09/09 03:25:05;;;;;;;;;;;14.30;99.90;;;;;;5036647;28;20273;-31
2022/09/09 03:27:31;;;;;;;;;;;14.20;99.90;;;;;;5036573;28;20008;-32
2022/09/09 03:29:57;;;;;;;;;;;14.30;99.90;;;;;;5036699;28;20322;-32
2022/09/09 03:32:24;;;;;;;;;;;14.30;99.90;;;;;;5040665;28;19922;-31
2022/09/09 03:34:50;;;;;;;;;;;14.20;99.90;;;;;;5045164;28;19921;-31
2022/09/09 03:37:17;;;;;;;;;;;14.20;99.90;;;;;;5024736;28;19923;-31
2022/09/09 03:39:43;;;;;;;;;;;14.20;99.90;;;;;;5036704;28;19920;-34
2022/09/09 03:42:09;;;;;;;;;;;14.20;99.90;;;;;;5050613;28;19917;-32
2022/09/09 03:44:34;;;;;;;;;;;14.20;99.90;;;;;;5036082;28;19920;-31
2022/09/09 03:47:00;;;;;;;;;;;14.20;99.90;;;;;;5042008;28;20289;-32
2022/09/09 03:49:28;;;;;;;;;;;14.10;99.90;;;;;;5052698;28;19924;-32
2022/09/09 03:51:55;;;;;;;;;;;14.20;99.90;;;;;;5036434;28;19917;-31
2022/09/09 03:54:20;;;;;;;;;;;14.20;99.90;;;;;;5035711;28;20707;-32
2022/09/09 03:56:46;;;;;;;;;;;14.20;99.90;;;;;;5035871;28;19952;-31
2022/09/09 03:59:11;;;;;;;;;;;14.20;99.90;;;;;;5035309;28;19916;-32
2022/09/09 04:01:37;;;;;;;;;;;14.20;99.90;;;;;;5035723;28;20035;-31
2022/09/09 04:04:03;;;;;;;;;;;14.20;99.90;;;;;;5035716;28;19979;-31
2022/09/09 04:06:29;;;;;;;;;;;14.20;99.90;;;;;;5018825;28;20336;-31
2022/09/09 04:08:55;;;;;;;;;;;14.20;99.90;;;;;;5035655;28;20007;-32
2022/09/09 04:11:21;;;;;;;;;;;14.20;99.90;;;;;;5041962;28;20378;-31
2022/09/09 04:13:47;;;;;;;;;;;14.20;99.90;;;;;;5035762;28;20354;-30
2022/09/09 04:16:15;;;;;;;;;;;14.20;99.90;;;;;;5029187;28;19920;-33
2022/09/09 04:18:41;;;;;;;;;;;14.30;99.90;;;;;;5032457;28;19923;-31
2022/09/09 04:21:08;;;;;;;;;;;14.30;99.90;;;;;;5046411;28;20348;-34
2022/09/09 04:23:34;;;;;;;;;;;14.30;99.90;;;;;;5035197;28;19917;-32
2022/09/09 04:26:01;;;;;;;;;;;14.30;99.90;;;;;;5035455;28;20324;-32
2022/09/09 04:28:28;;;;;;;;;;;14.20;99.90;;;;;;5022155;28;19916;-31
2022/09/09 04:30:54;;;;;;;;;;;14.30;99.90;;;;;;5034668;28;20343;-32
2022/09/09 04:33:19;;;;;;;;;;;14.30;99.90;;;;;;5038510;28;20036;-32
2022/09/09 04:35:49;;;;;;;;;;;14.20;99.90;;;;;;5040524;28;19923;-31
2022/09/09 04:38:15;;;;;;;;;;;14.20;99.90;;;;;;5048000;28;20452;-32
2022/09/09 04:40:42;;;;;;;;;;;14.20;99.90;;;;;;5032053;28;19923;-31
2022/09/09 04:43:08;;;;;;;;;;;14.20;99.90;;;;;;5033876;28;19916;-32
2022/09/09 04:45:34;;;;;;;;;;;14.20;99.90;;;;;;5033612;28;20008;-31
2022/09/09 04:48:00;;;;;;;;;;;14.10;99.90;;;;;;5026900;28;20418;-31
2022/09/09 04:50:26;;;;;;;;;;;14.20;99.90;;;;;;5033656;28;19924;-32
2022/09/09 04:52:51;;;;;;;;;;;14.10;99.90;;;;;;5012804;28;20267;-31
2022/09/09 04:55:17;;;;;;;;;;;14.10;99.90;;;;;;5034276;28;19987;-32
2022/09/09 04:57:43;;;;;;;;;;;14.10;99.90;;;;;;5034428;28;19917;-32
2022/09/09 05:00:10;;;;;;;;;;;14.10;99.90;;;;;;5041131;28;19956;-32
2022/09/09 05:02:39;;;;;;;;;;;14.00;99.90;;;;;;5033624;28;20038;-32
2022/09/09 05:05:06;;;;;;;;;;;14.00;99.90;;;;;;5035146;28;19924;-32
2022/09/09 05:07:31;;;;;;;;;;;14.00;99.90;;;;;;5033448;28;20333;-33
2022/09/09 05:09:57;;;;;;;;;;;14.00;99.90;;;;;;5034173;28;19917;-32
2022/09/09 05:12:25;;;;;;;;;;;13.90;99.90;;;;;;5034223;28;19916;-32
2022/09/09 05:14:53;;;;;;;;;;;14.00;99.90;;;;;;5034003;28;20007;-34
2022/09/09 05:17:18;;;;;;;;;;;13.90;99.90;;;;;;5031359;28;19920;-32
2022/09/09 05:19:44;;;;;;;;;;;13.90;99.90;;;;;;5030398;28;19940;-32
2022/09/09 05:22:11;;;;;;;;;;;13.90;99.90;;;;;;5025501;28;19917;-32
2022/09/09 05:24:37;;;;;;;;;;;13.90;99.90;;;;;;5035883;28;19917;-32
2022/09/09 05:27:04;;;;;;;;;;;13.90;99.90;;;;;;5029962;28;19936;-32
2022/09/09 05:29:29;;;;;;;;;;;13.90;99.90;;;;;;5038074;28;19924;-32
2022/09/09 05:31:55;;;;;;;;;;;13.90;99.90;;;;;;5036346;28;20271;-32
2022/09/09 05:34:21;;;;;;;;;;;14.00;99.90;;;;;;5037951;28;20011;-32
2022/09/09 05:36:47;;;;;;;;;;;13.90;99.90;;;;;;5038836;28;20010;-33
2022/09/09 05:39:12;;;;;;;;;;;14.00;99.90;;;;;;5039480;28;19921;-32
2022/09/09 05:41:38;;;;;;;;;;;14.00;99.90;;;;;;5031292;28;20332;-31
2022/09/09 05:44:04;;;;;;;;;;;14.00;99.90;;;;;;5051690;28;19920;-31
2022/09/09 05:46:30;;;;;;;;;;;14.10;99.90;;;;;;5048864;28;20309;-33
2022/09/09 05:48:56;;;;;;;;;;;14.10;99.90;;;;;;5037928;28;19917;-31
2022/09/09 05:51:23;;;;;;;;;;;14.20;99.90;;;;;;5039199;28;19923;-32
2022/09/09 05:53:50;;;;;;;;;;;14.20;99.90;;;;;;5052222;28;19963;-31
2022/09/09 05:56:17;;;;;;;;;;;14.20;99.90;;;;;;5047218;28;19924;-32
2022/09/09 05:58:46;;;;;;;;;;;14.30;99.90;;;;;;5037724;28;20004;-31
2022/09/09 06:01:13;;;;;;;;;;;14.30;99.90;;;;;;5036939;28;19917;-31
2022/09/09 06:03:40;;;;;;;;;;;14.30;99.90;;;;;;5036524;28;19916;-32
2022/09/09 06:06:07;;;;;;;;;;;14.40;99.90;;;;;;5036649;28;19920;-32
2022/09/09 06:08:33;;;;;;;;;;;14.40;99.90;;;;;;5036053;28;19921;-31
2022/09/09 06:11:06;;;;;;;;;;;14.50;99.90;;;;;;5046854;28;19963;-31
2022/09/09 06:13:32;;;;;;;;;;;14.50;99.90;;;;;;5040618;28;19917;-32
2022/09/09 06:15:58;;;;;;;;;;;14.60;99.90;;;;;;5038702;28;19917;-31
2022/09/09 06:18:25;;;;;;;;;;;14.60;99.90;;;;;;5039634;28;19939;-32
2022/09/09 06:20:58;;;;;;;;;;;14.60;99.90;;;;;;5046834;28;19923;-32
2022/09/09 06:23:25;;;;;;;;;;;14.60;99.90;;;;;;5038603;28;20372;-31
2022/09/09 06:26:01;;;;;;;;;;;14.70;99.90;;;;;;5036068;28;19917;-31
2022/09/09 06:28:27;;;;;;;;;;;14.70;99.90;;;;;;5036320;28;19971;-32
2022/09/09 06:31:04;;;;;;;;;;;14.80;99.90;;;;;;5035203;28;19924;-31
2022/09/09 06:33:34;;;;;;;;;;;14.80;99.90;;;;;;5035927;28;19975;-31
2022/09/09 06:36:01;;;;;;;;;;;14.80;99.90;;;;;;5053153;28;20011;-32
2022/09/09 06:38:27;;;;;;;;;;;14.80;99.90;;;;;;5039169;28;20406;-32
2022/09/09 06:40:54;;;;;;;;;;;14.90;99.90;;;;;;5034977;28;19921;-32
2022/09/09 06:43:20;;;;;;;;;;;14.90;99.90;;;;;;5037001;28;19960;-32
2022/09/09 06:45:59;;;;;;;;;;;14.90;99.90;;;;;;5036948;28;19951;-31
2022/09/09 06:48:28;;;;;;;;;;;14.90;99.90;;;;;;5040153;28;19921;-32
2022/09/09 06:51:21;;;;;;;;;;;15.00;99.90;;;;;;5042817;28;20460;-32
2022/09/09 06:53:47;;;;;;;;;;;15.10;99.90;;;;;;5031495;28;19963;-33
2022/09/09 06:56:16;;;;;;;;;;;15.10;99.90;;;;;;5042800;28;20306;-32
2022/09/09 06:58:43;;;;;;;;;;;15.10;99.90;;;;;;5031408;28;20004;-31
2022/09/09 07:01:12;;;;;;;;;;;15.20;99.90;;;;;;5040650;28;19917;-32
2022/09/09 07:03:38;;;;;;;;;;;15.30;99.90;;;;;;5037523;28;20372;-32
2022/09/09 07:06:04;;;;;;;;;;;15.30;99.90;;;;;;5036710;28;19924;-33
2022/09/09 07:08:31;;;;;;;;;;;15.40;99.90;;;;;;5036107;28;20358;-32
2022/09/09 07:11:07;;;;;;;;;;;15.50;99.90;;;;;;5027440;28;20409;-32
2022/09/09 07:13:33;;;;;;;;;;;15.60;99.90;;;;;;5028030;28;20306;-33
2022/09/09 07:16:05;;;;;;;;;;;15.70;99.90;;;;;;5036418;28;19917;-32
2022/09/09 07:18:31;;;;;;;;;;;15.80;99.90;;;;;;5035822;28;19916;-37
2022/09/09 07:20:57;;;;;;;;;;;15.90;99.90;;;;;;5035927;28;20346;-33
2022/09/09 07:23:23;;;;;;;;;;;15.90;99.90;;;;;;5049774;28;19920;-33
2022/09/09 07:25:50;;;;;;;;;;;16.00;99.90;;;;;;5068173;28;19917;-32
2022/09/09 07:28:16;;;;;;;;;;;16.00;99.90;;;;;;5038320;28;19932;-32
2022/09/09 07:30:42;;;;;;;;;;;15.90;99.90;;;;;;5047835;28;19917;-31
2022/09/09 07:33:09;;;;;;;;;;;15.90;99.90;;;;;;5035946;28;19924;-33
2022/09/09 07:35:36;;;;;;;;;;;15.90;99.90;;;;;;5041957;28;19917;-32
2022/09/09 07:38:03;;;;;;;;;;;16.00;99.90;;;;;;5036215;28;19916;-33
2022/09/09 07:40:30;;;;;;;;;;;16.00;99.90;;;;;;5043158;28;19970;-32
2022/09/09 07:42:55;;;;;;;;;;;16.00;99.90;;;;;;5035630;28;19916;-33
2022/09/09 07:45:21;;;;;;;;;;;16.10;99.90;;;;;;5044450;28;19923;-33
2022/09/09 07:47:48;;;;;;;;;;;16.10;99.90;;;;;;5039766;28;19921;-32
2022/09/09 07:50:14;;;;;;;;;;;16.20;99.90;;;;;;5035316;28;19921;-31
2022/09/09 07:52:40;;;;;;;;;;;16.30;99.90;;;;;;5035689;28;19939;-33
2022/09/09 07:55:06;;;;;;;;;;;16.40;99.90;;;;;;5030980;28;20374;-32
2022/09/09 07:57:32;;;;;;;;;;;16.50;99.90;;;;;;5034848;28;20279;-33
2022/09/09 07:59:57;;;;;;;;;;;16.80;99.90;;;;;;5049058;28;19916;-32
2022/09/09 08:02:25;;;;;;;;;;;17.00;99.90;;;;;;5042133;28;19916;-32
2022/09/09 08:04:51;;;;;;;;;;;17.10;99.90;;;;;;5036100;28;19916;-34
2022/09/09 08:07:17;;;;;;;;;;;17.20;99.90;;;;;;5045729;28;19928;-32
2022/09/09 08:09:43;;;;;;;;;;;17.20;99.90;;;;;;5035033;28;19920;-32
2022/09/09 08:12:09;;;;;;;;;;;17.40;99.90;;;;;;5034765;28;19923;-33
2022/09/09 08:14:35;;;;;;;;;;;17.50;99.90;;;;;;5046125;28;19920;-31
2022/09/09 08:17:00;;;;;;;;;;;17.80;99.90;;;;;;5037770;28;20358;-33
2022/09/09 08:19:29;;;;;;;;;;;18.00;99.90;;;;;;5034755;28;19939;-32
2022/09/09 08:21:54;;;;;;;;;;;18.10;99.90;;;;;;5048587;28;19923;-32
2022/09/09 08:24:20;;;;;;;;;;;18.20;99.90;;;;;;5034616;28;20007;-32
2022/09/09 08:26:49;;;;;;;;;;;18.10;99.90;;;;;;5036286;28;20370;-32
2022/09/09 08:29:15;;;;;;;;;;;18.10;99.90;;;;;;5031429;28;20369;-33
2022/09/09 08:31:45;;;;;;;;;;;18.10;99.90;;;;;;5038910;28;19925;-32
2022/09/09 08:34:10;;;;;;;;;;;18.00;99.90;;;;;;5041246;28;19935;-32
2022/09/09 08:36:42;;;;;;;;;;;18.10;99.90;;;;;;5033122;28;20535;-32
2022/09/09 08:39:08;;;;;;;;;;;18.20;99.90;;;;;;5033270;28;19917;-33
2022/09/09 08:41:34;;;;;;;;;;;18.30;99.90;;;;;;5045965;28;20308;-32
2022/09/09 08:44:14;;;;;;;;;;;18.40;99.90;;;;;;5039307;28;19971;-33
2022/09/09 08:46:51;;;;;;;;;;;18.50;99.90;;;;;;5034058;28;19921;-32
2022/09/09 08:49:35;;;;;;;;;;;18.70;99.90;;;;;;5037919;28;19917;-32
2022/09/09 08:52:02;;;;;;;;;;;18.70;99.90;;;;;;5037619;28;20129;-32
2022/09/09 08:54:31;;;;;;;;;;;18.60;99.90;;;;;;5041153;28;20339;-32
2022/09/09 08:56:57;;;;;;;;;;;18.60;99.90;;;;;;5040343;28;19920;-32
2022/09/09 08:59:23;;;;;;;;;;;18.60;99.90;;;;;;5042046;28;19969;-32
2022/09/09 09:02:15;;;;;;;;;;;18.70;99.90;;;;;;5034678;28;19924;-32
2022/09/09 09:05:07;;;;;;;;;;;18.70;99.90;;;;;;5034282;28;19924;-32
2022/09/09 09:07:59;;;;;;;;;;;18.60;99.90;;;;;;5005604;28;19928;-33
2022/09/09 09:10:30;;;;;;;;;;;18.50;99.90;;;;;;5037935;28;20006;-33
2022/09/09 09:12:56;;;;;;;;;;;18.60;99.90;;;;;;5034503;28;20278;-34
2022/09/09 09:15:26;;;;;;;;;;;18.60;99.90;;;;;;5034242;28;19920;-33
2022/09/09 09:17:52;;;;;;;;;;;18.70;99.90;;;;;;5034348;28;19917;-32
2022/09/09 09:20:20;;;;;;;;;;;18.60;99.90;;;;;;5035957;28;19939;-31
2022/09/09 09:22:51;;;;;;;;;;;18.50;99.90;;;;;;5045779;28;19917;-32
2022/09/09 09:25:17;;;;;;;;;;;18.50;99.90;;;;;;5045997;28;19966;-33
2022/09/09 09:27:51;;;;;;;;;;;18.60;99.90;;;;;;5034015;28;20507;-33
2022/09/09 09:30:18;;;;;;;;;;;18.80;99.90;;;;;;5034243;28;19916;-32
2022/09/09 09:33:04;;;;;;;;;;;19.10;99.90;;;;;;5038091;28;19916;-32
2022/09/09 09:35:30;;;;;;;;;;;19.20;99.90;;;;;;5033533;28;19964;-32
2022/09/09 09:37:55;;;;;;;;;;;19.20;99.90;;;;;;5034282;28;20388;-32
2022/09/09 09:40:22;;;;;;;;;;;19.40;99.90;;;;;;5034110;28;19916;-31
2022/09/09 09:42:52;;;;;;;;;;;19.90;99.90;;;;;;5033954;28;19916;-32
2022/09/09 09:45:48;;;;;;;;;;;20.20;99.90;;;;;;5034058;28;19962;-33
2022/09/09 09:48:14;;;;;;;;;;;20.40;99.90;;;;;;5015381;28;20267;-34
2022/09/09 09:50:57;;;;;;;;;;;20.60;99.90;;;;;;5032020;28;20393;-32
2022/09/09 09:53:23;;;;;;;;;;;20.60;99.90;;;;;;5020832;28;20256;-32
2022/09/09 09:55:52;;;;;;;;;;;20.40;99.90;;;;;;5031117;28;20248;-32
2022/09/09 09:58:18;;;;;;;;;;;20.20;99.90;;;;;;5031904;28;20270;-32
2022/09/09 10:00:48;;;;;;;;;;;20.20;99.90;;;;;;5031818;28;19923;-31
2022/09/09 10:03:31;;;;;;;;;;;20.10;99.90;;;;;;5034104;28;19952;-32
2022/09/09 10:05:57;;;;;;;;;;;19.90;99.90;;;;;;5033268;28;19946;-32
2022/09/09 10:08:27;;;;;;;;;;;19.70;99.90;;;;;;5034009;28;19924;-33
2022/09/09 10:11:01;;;;;;;;;;;19.60;99.90;;;;;;5043173;28;20377;-32
2022/09/09 10:13:29;;;;;;;;;;;19.80;99.90;;;;;;5040042;28;20233;-31
2022/09/09 10:15:58;;;;;;;;;;;19.90;99.90;;;;;;5050460;28;19963;-33
2022/09/09 10:18:41;;;;;;;;;;;19.90;99.90;;;;;;5037498;28;20011;-31
2022/09/09 10:21:07;;;;;;;;;;;20.20;99.90;;;;;;5033701;28;20289;-34
2022/09/09 10:23:43;;;;;;;;;;;20.60;99.90;;;;;;5037418;28;19927;-33
2022/09/09 10:26:28;;;;;;;;;;;20.90;99.90;;;;;;5040257;28;19924;-33
2022/09/09 10:28:57;;;;;;;;;;;21.00;99.90;;;;;;5040780;28;19928;-31
2022/09/09 10:31:42;;;;;;;;;;;21.00;99.90;;;;;;5036804;28;19920;-32
2022/09/09 10:34:17;;;;;;;;;;;20.70;99.90;;;;;;5036841;28;19917;-32
2022/09/09 10:36:50;;;;;;;;;;;20.90;99.90;;;;;;5037089;28;19947;-32
2022/09/09 10:39:28;;;;;;;;;;;21.00;99.90;;;;;;5036739;28;19924;-32
2022/09/09 10:42:17;;;;;;;;;;;20.90;99.90;;;;;;5036749;28;20085;-33
2022/09/09 10:44:45;;;;;;;;;;;20.60;99.90;;;;;;5031135;28;19939;-32
2022/09/09 10:47:23;;;;;;;;;;;20.50;99.90;;;;;;5036661;28;19943;-32
2022/09/09 10:50:18;;;;;;;;;;;20.70;99.90;;;;;;5036343;28;19917;-33
2022/09/09 10:52:47;;;;;;;;;;;20.80;99.90;;;;;;4966200;28;19918;-32
2022/09/09 10:55:16;;;;;;;;;;;21.20;99.90;;;;;;5036379;28;19920;-32
2022/09/09 10:57:54;;;;;;;;;;;21.40;99.90;;;;;;5036419;28;19927;-33
2022/09/09 11:00:24;;;;;;;;;;;21.40;99.90;;;;;;5054209;28;19924;-33
2022/09/09 11:02:52;;;;;;;;;;;21.40;99.90;;;;;;5042646;28;19986;-33
2022/09/09 11:05:39;;;;;;;;;;;21.50;99.90;;;;;;5036074;28;19917;-32
2022/09/09 11:08:19;;;;;;;;;;;21.70;99.90;;;;;;5047091;28;19927;-32
2022/09/09 11:10:48;;;;;;;;;;;21.90;99.90;;;;;;5021074;28;19923;-32
2022/09/09 11:13:18;;;;;;;;;;;21.90;99.90;;;;;;5034535;28;19947;-32
2022/09/09 11:15:46;;;;;;;;;;;21.90;99.90;;;;;;5025417;28;19947;-33
2022/09/09 11:18:31;;;;;;;;;;;21.80;99.90;;;;;;5034288;28;20294;-33
2022/09/09 11:20:59;;;;;;;;;;;21.70;99.90;;;;;;5028880;28;19923;-33
2022/09/09 11:23:30;;;;;;;;;;;21.80;99.90;;;;;;5033375;28;19924;-34
2022/09/09 11:25:57;;;;;;;;;;;21.60;99.90;;;;;;5029589;28;19923;-32
2022/09/09 11:28:40;;;;;;;;;;;21.50;99.90;;;;;;5032561;28;20367;-34
2022/09/09 11:31:26;;;;;;;;;;;21.80;99.90;;;;;;5030296;28;19923;-33
2022/09/09 11:33:51;;;;;;;;;;;21.90;99.90;;;;;;5032212;28;19917;-33
2022/09/09 11:36:34;;;;;;;;;;;21.90;99.90;;;;;;5033973;28;20046;-32
2022/09/09 11:39:02;;;;;;;;;;;21.60;99.90;;;;;;5035207;28;19924;-33
2022/09/09 11:41:33;;;;;;;;;;;21.40;99.90;;;;;;5034468;28;19917;-34
2022/09/09 11:43:59;;;;;;;;;;;21.30;99.90;;;;;;5035170;28;20352;-32
2022/09/09 11:46:33;;;;;;;;;;;21.20;99.90;;;;;;5035080;28;19921;-34
2022/09/09 11:49:00;;;;;;;;;;;21.20;99.90;;;;;;5035186;28;19995;-33
2022/09/09 11:51:28;;;;;;;;;;;21.30;99.90;;;;;;5034466;28;20317;-32
2022/09/09 11:53:57;;;;;;;;;;;21.50;99.90;;;;;;5034522;28;19931;-32
2022/09/09 11:56:31;;;;;;;;;;;21.60;99.90;;;;;;5034899;28;20011;-34
2022/09/09 11:59:00;;;;;;;;;;;21.80;99.90;;;;;;5035384;28;19917;-32
2022/09/09 12:01:28;;;;;;;;;;;22.10;99.90;;;;;;5034099;28;19921;-33
2022/09/09 12:04:09;;;;;;;;;;;22.40;99.90;;;;;;5035026;28;19968;-33
2022/09/09 12:06:46;;;;;;;;;;;23.00;99.90;;;;;;5034533;28;19917;-33
2022/09/09 12:09:32;;;;;;;;;;;23.40;99.90;;;;;;5034606;28;19920;-33
2022/09/09 12:12:13;;;;;;;;;;;23.70;99.90;;;;;;5017802;28;20038;-33
2022/09/09 12:14:43;;;;;;;;;;;23.80;99.90;;;;;;5043642;28;19916;-32
2022/09/09 12:17:30;;;;;;;;;;;23.70;99.90;;;;;;5034256;28;19920;-32
2022/09/09 12:20:07;;;;;;;;;;;23.50;99.90;;;;;;5018509;28;19970;-33
2022/09/09 12:22:40;;;;;;;;;;;23.40;99.90;;;;;;5034186;28;19924;-33
2022/09/09 12:25:16;;;;;;;;;;;23.20;99.90;;;;;;5034157;28;20375;-33
2022/09/09 12:28:01;;;;;;;;;;;22.90;99.90;;;;;;5027311;28;19967;-33
2022/09/09 12:30:42;;;;;;;;;;;22.60;99.90;;;;;;5034088;28;19940;-32
2022/09/09 12:33:15;;;;;;;;;;;22.20;99.90;;;;;;5033654;28;20177;-33
2022/09/09 12:35:42;;;;;;;;;;;22.10;99.90;;;;;;5032788;28;19923;-32
2022/09/09 12:38:12;;;;;;;;;;;22.00;99.90;;;;;;5034370;28;19924;-33
2022/09/09 12:40:39;;;;;;;;;;;21.90;99.90;;;;;;5034043;28;19952;-32
2022/09/09 12:43:18;;;;;;;;;;;21.60;99.90;;;;;;5033452;28;19917;-33
2022/09/09 12:45:45;;;;;;;;;;;21.50;99.90;;;;;;5033777;28;19925;-32
2022/09/09 12:48:11;;;;;;;;;;;21.20;99.90;;;;;;5030287;28;19921;-32
2022/09/09 12:50:38;;;;;;;;;;;21.10;99.90;;;;;;5034179;28;19935;-33
2022/09/09 12:53:08;;;;;;;;;;;20.90;99.90;;;;;;5033608;28;19950;-33
2022/09/09 12:55:38;;;;;;;;;;;20.80;99.90;;;;;;5033794;28;19966;-33
2022/09/09 12:58:05;;;;;;;;;;;20.60;99.90;;;;;;5032765;28;19916;-33
2022/09/09 13:00:32;;;;;;;;;;;20.50;99.90;;;;;;5033254;28;19920;-32
2022/09/09 13:03:02;;;;;;;;;;;20.40;99.90;;;;;;5033944;28;19924;-33
2022/09/09 13:05:34;;;;;;;;;;;20.40;99.90;;;;;;5029668;28;20301;-32
2022/09/09 13:08:02;;;;;;;;;;;20.30;99.90;;;;;;5033717;28;20263;-32
2022/09/09 13:10:29;;;;;;;;;;;20.60;99.90;;;;;;5032407;28;19921;-32
2022/09/09 13:12:54;;;;;;;;;;;21.00;99.90;;;;;;5033247;28;20348;-32
2022/09/09 13:15:22;;;;;;;;;;;22.00;99.90;;;;;;5033376;28;20003;-32
2022/09/09 13:18:00;;;;;;;;;;;23.50;99.90;;;;;;5034038;28;19959;-33
2022/09/09 13:20:26;;;;;;;;;;;24.90;99.90;;;;;;5033342;28;19917;-35
2022/09/09 13:22:53;;;;;;;;;;;26.00;99.90;;;;;;5033613;28;19970;-34
2022/09/09 13:25:28;;;;;;;;;;;26.40;99.90;;;;;;5032912;28;19998;-34
2022/09/09 13:28:04;;;;;;;;;;;26.60;99.90;;;;;;5033506;28;19963;-33
2022/09/09 13:30:35;;;;;;;;;;;26.30;94.20;;;;;;5033580;28;20345;-33
2022/09/09 13:33:04;;;;;;;;;;;25.70;99.90;;;;;;5033598;28;20360;-33
2022/09/09 13:35:30;;;;;;;;;;;24.90;98.10;;;;;;5033545;28;19932;-33
2022/09/09 13:37:56;;;;;;;;;;;24.30;99.90;;;;;;5033827;28;19916;-33
2022/09/09 13:40:23;;;;;;;;;;;23.70;99.90;;;;;;5033572;28;20317;-33
2022/09/09 13:42:52;;;;;;;;;;;22.90;99.90;;;;;;5032923;28;19917;-32
2022/09/09 13:45:21;;;;;;;;;;;22.40;99.90;;;;;;5034875;28;19923;-33
2022/09/09 13:47:52;;;;;;;;;;;22.10;99.90;;;;;;5037135;28;19921;-32
2022/09/09 13:50:17;;;;;;;;;;;21.80;99.90;;;;;;5030914;28;19917;-32
2022/09/09 13:52:43;;;;;;;;;;;21.60;99.90;;;;;;5037102;28;19921;-33
2022/09/09 13:55:09;;;;;;;;;;;21.40;99.90;;;;;;5037342;28;20025;-32
2022/09/09 13:57:35;;;;;;;;;;;21.20;99.90;;;;;;5029346;28;19950;-33
2022/09/09 14:00:01;;;;;;;;;;;21.00;99.90;;;;;;5037746;28;19920;-32
2022/09/09 14:02:26;;;;;;;;;;;20.70;99.90;;;;;;5037646;28;20342;-32
2022/09/09 14:04:55;;;;;;;;;;;20.50;99.90;;;;;;5037068;28;19916;-32
2022/09/09 14:07:21;;;;;;;;;;;20.20;99.90;;;;;;5037285;28;20191;-31
2022/09/09 14:09:49;;;;;;;;;;;19.80;99.90;;;;;;5037565;28;19916;-32
2022/09/09 14:12:16;;;;;;;;;;;19.60;99.90;;;;;;5036829;28;19962;-31
2022/09/09 14:14:42;;;;;;;;;;;19.50;99.90;;;;;;5037007;28;19916;-31
2022/09/09 14:17:08;;;;;;;;;;;19.50;99.90;;;;;;5036269;28;19916;-32
2022/09/09 14:19:34;;;;;;;;;;;19.50;99.90;;;;;;5029846;28;20027;-32
2022/09/09 14:22:00;;;;;;;;;;;19.60;99.90;;;;;;5035938;28;20403;-31
2022/09/09 14:24:27;;;;;;;;;;;19.70;99.90;;;;;;5036532;28;19923;-32
2022/09/09 14:26:53;;;;;;;;;;;19.80;99.90;;;;;;5036373;28;19931;-32
2022/09/09 14:29:18;;;;;;;;;;;20.10;99.90;;;;;;5034473;28;19917;-33
2022/09/09 14:31:44;;;;;;;;;;;20.40;99.90;;;;;;5036573;28;20457;-33